MT WASHINGTON (MTW)

Elevation: 920' · LOS ANGELES R basin · Operator: Los Angeles County Fire Dept

Query executed Friday at 17:03:49   clock

Provisional data, subject to change.
Select a sensor type for a plot of data.

Earlier

Date   /   Time   RAIN     TEMP     REL HUM     BAR PRE     FUEL MS     FUEL TP     WIND SP     WIND DR     PEAK WS     PEAK WD     SOLAR R     BAT VOL    
(PDT)INCHES   DEG F   %   INCHES   %   DEG F   MPH   DEG   MPH   DEG   W/M^2   VOLTS  
08/28/2014 18:00 5.08 83 25 -- 5 83 -- -- -- -- 17.00 12.5
08/28/2014 19:00 5.08 80 27 -- 5 78 -- -- -- -- 4.00 12.5
08/28/2014 20:00 5.08 77 27 -- 5 76 -- -- -- -- 0.00 12.5
08/28/2014 21:00 5.08 75 26 -- 5 74 -- -- -- -- 0.00 12.5
08/28/2014 22:00 5.08 73 30 -- 5 72 -- -- -- -- 0.00 12.5
08/28/2014 23:00 5.08 70 43 -- 6 69 -- -- -- -- 0.00 12.4
08/29/2014 00:00 5.08 70 44 -- 6 69 -- -- -- -- 0.00 12.4
08/29/2014 01:00 5.08 69 55 -- 7 68 -- -- -- -- 0.00 12.4
08/29/2014 02:00 5.08 67 61 -- 7 66 -- -- -- -- 0.00 12.4
08/29/2014 03:00 5.08 67 61 -- 8 66 -- -- -- -- 0.00 12.3
08/29/2014 04:00 5.08 69 53 -- 8 66 -- -- -- -- 0.00 12.3
08/29/2014 05:00 5.08 73 38 -- 8 68 -- -- -- -- 0.00 12.3
08/29/2014 06:00 5.08 68 53 -- 8 66 -- -- -- -- 6.00 12.3
08/29/2014 07:00 5.08 74 44 -- 8 72 -- -- -- -- 144.00 13.4
08/29/2014 08:00 5.08 77 39 -- 8 75 -- -- -- -- 372.00 13.4
08/29/2014 09:00 5.08 82 35 -- 8 86 -- -- -- -- 560.00 13.4
08/29/2014 10:00 5.08 85 30 -- 7 92 -- -- -- -- 720.00 13.4
08/29/2014 11:00 5.08 88 24 -- 6 104 -- -- -- -- 834.00 13.4
08/29/2014 12:00 5.08 90 22 -- 6 106 -- -- -- -- 891.00 13.4
08/29/2014 13:00 5.08 92 32 -- 5 107 -- -- -- -- 877.00 13.4
08/29/2014 14:00 5.08 89 36 -- 6 103 -- -- -- -- 804.00 13.4
08/29/2014 15:00 5.08 88 36 -- 6 93 -- -- -- -- 544.00 13.4
08/29/2014 16:00 5.08 85 38 -- 6 87 -- -- -- -- 442.00 13.4
08/29/2014 17:00 -- -- -- -- -- -- -- -- -- -- -- --

Later | Latest

Warning! This data is preliminary and subject to revision.

Download Data Now Download Data Now | Show MTW Map | 24 Hours MTW Data | Plot all MTW Sensors | Daily MTW Data | MTW Info